Terminal Aerodrome Forecast
Issued by NWS Nashville, TN

Current Version | Previous Version | Text Only | Print | Product List | Glossary Off
Versions: 1 2 3 4 5 6 7 8 9 10 11 12 13 14 15 16

000
FTUS44 KOHX 240500
TAFCSV
TAF
KCSV 240528Z 2406/2506 02005KT P6SM BKN160
     FM241200 02003KT P6SM SCT160=

USA.gov is the U.S. government's official web portal to all federal, state and local government web resources and services.